Terminal Aerodrome Forecast
Issued by NWS Duluth, MN

Home | Current Version | Previous Version | Text Only | Print | Product List | Glossary Off
Versions: 1 2 3 4 5 6 7 8 9 10 11 12 13 14 15 16 17 18 19 20 21 22 23 24 25

634
FTUS43 KDLH 291736
TAFDLH
TAF
KDLH 291736Z 2918/3018 12011KT P6SM FEW060
     FM300100 09008KT P6SM SKC=

USA.gov is the U.S. government's official web portal to all federal, state and local government web resources and services.